logo tempoitalia

Diretta Meteo Joplin, Stati Uniti (USA)lunedì 31 agosto ore 00:53

Mappa
Sereno 28 °C Sereno 24 Ore: T.min 23 T.max 37
Ponente Sud Km/h 24 Punto di rugiada: 16 °C Umidità: 48% Visibilità: 10 Km
Il sole sorge alle: 06:48 Il sole tramonta alle: 19:48
31 Agosto 2026 00:53 tempo osservato: Sereno Sereno 28 48 1015 vento: Nord S 24
30 Agosto 2026 23:53 tempo osservato: Sereno Sereno 29 45 1015 vento: Nord S 20.3
30 Agosto 2026 22:53 tempo osservato: Sereno Sereno 29 45 1014 vento: Nord S/SE 13
30 Agosto 2026 21:53 tempo osservato: Sereno Sereno 29 45 1014 vento: Nord S 13
30 Agosto 2026 20:53 tempo osservato: Sereno Sereno 30 42 1013 vento: Nord S/SE 9.3
30 Agosto 2026 19:53 tempo osservato: Sereno Sereno 32 38 1013 vento: Nord S 11.1
30 Agosto 2026 18:53 tempo osservato: Sereno Sereno 36 30 1013 vento: Nord S 18.5
30 Agosto 2026 17:53 tempo osservato: Sereno Sereno 37 28 1013 vento: Nord S/SO 20.3
30 Agosto 2026 16:53 tempo osservato: Sereno Sereno 37 30 1013 vento: Nord S/SO 16.7
30 Agosto 2026 15:53 tempo osservato: Sereno Sereno 37 28 1014 vento: Nord S/SO 22.2
30 Agosto 2026 14:53 tempo osservato: Sereno Sereno 37 30 1014 vento: Nord SO 20.3
30 Agosto 2026 13:53 tempo osservato: Sereno Sereno 36 32 1015 vento: Nord S/SO 25.9
30 Agosto 2026 12:53 tempo osservato: Sereno Sereno 35 34 1015 vento: Nord S 31.5
30 Agosto 2026 11:53 tempo osservato: Sereno Sereno 34 36 1016 vento: Nord S/SO 25.9
30 Agosto 2026 10:53 tempo osservato: Sereno Sereno 32 38 1016 vento: Nord S/SO 22.2
30 Agosto 2026 09:53 tempo osservato: Sereno Sereno 29 45 1016 vento: Nord S/SO 27.8
30 Agosto 2026 08:53 tempo osservato: Sereno Sereno 27 47 1017 vento: Nord S 25.9
30 Agosto 2026 07:53 tempo osservato: Sereno Sereno 24 57 1016 vento: Nord S 18.5
30 Agosto 2026 06:53 tempo osservato: Sereno Sereno 23 56 1016 vento: Nord S 14.8
30 Agosto 2026 05:53 tempo osservato: Sereno Sereno 24 53 1016 vento: Nord S 16.7
30 Agosto 2026 04:53 tempo osservato: Sereno Sereno 25 50 1015 vento: Nord S 18.5
30 Agosto 2026 03:53 tempo osservato: Sereno Sereno 26 47 1015 vento: Nord S 18.5
30 Agosto 2026 02:53 tempo osservato: Sereno Sereno 26 47 1015 vento: Nord S 20.3
30 Agosto 2026 01:53 tempo osservato: Sereno Sereno 27 47 1015 vento: Nord S 22.2